No.3tokuyomaru — JD3132 — position and weather

sailwx.info

Track history (hours):
 
Tides and Currents Weather Stations Pressure Air Temp Water Temp Dewpoint Dewpoint Depression Visibility Wind Speed Wind Dir Waves Ship Positions

No.3tokuyomaru

Last reported at 2016-Jun-26 06:17 UTC. Time now 2016-Jun-26 08:21 UTC.
Position N 34°33' E 135°26'.

Length 67 m; draft 4 m.

Type: Tanker. MMSI: 431002151.

Date/timePositionNaut miles runAvg speedWind from/ knotsBaromVisibWave heightAir tempDewpointWater temp
2016-Jun-26 06:17N 34°33' E 135°26'7 9.3
2016-Jun-26 05:33N 34°34' E 135°18'1312.7
2016-Jun-26 04:33N 34°36' E 135°03'1611.7
2016-Jun-26 03:09N 34°40' E 134°44'16 0.8
2016-Jun-25 07:33N 34°37' E 135°03'1110.8
2016-Jun-25 06:33N 34°34' E 135°16'9 8.9
2016-Jun-25 05:33N 34°33' E 135°26'0 0.0
2016-Jun-24 23:32N 34°33' E 135°26'1111.8
2016-Jun-24 22:33N 34°37' E 135°13'9 0.5
2016-Jun-24 04:33N 34°37' E 135°02'12 0.5
2016-Jun-23 05:33N 34°35' E 135°16'9 8.9
2016-Jun-23 04:33N 34°33' E 135°26'0 0.1
2016-Jun-22 23:34N 34°33' E 135°26'1110.5
2016-Jun-22 22:33N 34°37' E 135°14'4 3.8
2016-Jun-22 21:33N 34°40' E 135°11'0 0.0
2016-Jun-22 20:33N 34°40' E 135°11'0 0.0
2016-Jun-22 19:33N 34°40' E 135°11'0 0.0
2016-Jun-22 18:15N 34°40' E 135°11'0 0.0
2016-Jun-22 17:33N 34°40' E 135°11'0 0.0
2016-Jun-22 16:27N 34°40' E 135°11'0 0.0
2016-Jun-22 15:15N 34°40' E 135°11'0 0.0
2016-Jun-22 14:15N 34°40' E 135°11'0 0.0
2016-Jun-22 13:33N 34°40' E 135°11'0 0.0
2016-Jun-22 12:27N 34°40' E 135°11'0 0.0
2016-Jun-22 11:33N 34°40' E 135°11'0 0.0
2016-Jun-22 10:21N 34°40' E 135°11'0 0.0
2016-Jun-22 09:21N 34°40' E 135°11'0 0.0
2016-Jun-22 08:33N 34°40' E 135°11'0 0.0
2016-Jun-22 07:21N 34°40' E 135°11'0 0.0
2016-Jun-22 06:33N 34°40' E 135°11'0 0.0
2016-Jun-22 05:33N 34°40' E 135°11'0 0.0
2016-Jun-22 04:33N 34°40' E 135°11'0 0.0
2016-Jun-22 03:33N 34°40' E 135°11'0 0.0
2016-Jun-22 02:33N 34°40' E 135°11'0 0.0
2016-Jun-22 01:27N 34°40' E 135°11'0 0.0
2016-Jun-22 00:33N 34°40' E 135°11'0 0.0
2016-Jun-21 23:33N 34°40' E 135°11'0 0.0
2016-Jun-21 22:33N 34°40' E 135°11'2 2.1
2016-Jun-21 21:33N 34°38' E 135°11'7 7.3
2016-Jun-21 20:33N 34°36' E 135°02'  
2016-Jun-19 07:14N 34°37' E 135°01'710.6
2016-Jun-19 06:33N 34°35' E 135°09'1312.6
2016-Jun-19 05:33N 34°33' E 135°25'1 0.2
2016-Jun-19 00:15N 34°33' E 135°26'2 3.3
2016-Jun-18 23:31N 34°34' E 135°23'0 0.0
2016-Jun-18 21:17N 34°34' E 135°23'0 0.0
2016-Jun-18 20:11N 34°34' E 135°23'0 0.0
2016-Jun-18 18:23N 34°34' E 135°23'2 2.9
2016-Jun-18 17:33N 34°34' E 135°21'1312.9
2016-Jun-18 16:34N 34°35' E 135°05'  
Track history (hours):
 
Tides and Currents Weather Stations Pressure Air Temp Water Temp Dewpoint Dewpoint Depression Visibility Wind Speed Wind Dir Waves Ship Positions

No.3tokuyomaru

Last reported at 2016-Jun-26 06:17 UTC. Time now 2016-Jun-26 08:21 UTC.
Position N 34°33' E 135°26'.

Length 67 m; draft 4 m.

Type: Tanker. MMSI: 431002151.

Date/timePositionNaut miles runAvg speedWind from/ knotsBaromVisibWave heightAir tempDewpointWater temp
2016-Jun-26 06:17N 34°33' E 135°26'7 9.3
2016-Jun-26 05:33N 34°34' E 135°18'1312.7
2016-Jun-26 04:33N 34°36' E 135°03'1611.7
2016-Jun-26 03:09N 34°40' E 134°44'16 0.8
2016-Jun-25 07:33N 34°37' E 135°03'1110.8
2016-Jun-25 06:33N 34°34' E 135°16'9 8.9
2016-Jun-25 05:33N 34°33' E 135°26'0 0.0
2016-Jun-24 23:32N 34°33' E 135°26'1111.8
2016-Jun-24 22:33N 34°37' E 135°13'9 0.5
2016-Jun-24 04:33N 34°37' E 135°02'12 0.5
2016-Jun-23 05:33N 34°35' E 135°16'9 8.9
2016-Jun-23 04:33N 34°33' E 135°26'0 0.1
2016-Jun-22 23:34N 34°33' E 135°26'1110.5
2016-Jun-22 22:33N 34°37' E 135°14'4 3.8
2016-Jun-22 21:33N 34°40' E 135°11'0 0.0
2016-Jun-22 20:33N 34°40' E 135°11'0 0.0
2016-Jun-22 19:33N 34°40' E 135°11'0 0.0
2016-Jun-22 18:15N 34°40' E 135°11'0 0.0
2016-Jun-22 17:33N 34°40' E 135°11'0 0.0
2016-Jun-22 16:27N 34°40' E 135°11'0 0.0
2016-Jun-22 15:15N 34°40' E 135°11'0 0.0
2016-Jun-22 14:15N 34°40' E 135°11'0 0.0
2016-Jun-22 13:33N 34°40' E 135°11'0 0.0
2016-Jun-22 12:27N 34°40' E 135°11'0 0.0
2016-Jun-22 11:33N 34°40' E 135°11'0 0.0
2016-Jun-22 10:21N 34°40' E 135°11'0 0.0
2016-Jun-22 09:21N 34°40' E 135°11'0 0.0
2016-Jun-22 08:33N 34°40' E 135°11'0 0.0
2016-Jun-22 07:21N 34°40' E 135°11'0 0.0
2016-Jun-22 06:33N 34°40' E 135°11'0 0.0
2016-Jun-22 05:33N 34°40' E 135°11'0 0.0
2016-Jun-22 04:33N 34°40' E 135°11'0 0.0
2016-Jun-22 03:33N 34°40' E 135°11'0 0.0
2016-Jun-22 02:33N 34°40' E 135°11'0 0.0
2016-Jun-22 01:27N 34°40' E 135°11'0 0.0
2016-Jun-22 00:33N 34°40' E 135°11'0 0.0
2016-Jun-21 23:33N 34°40' E 135°11'0 0.0
2016-Jun-21 22:33N 34°40' E 135°11'2 2.1
2016-Jun-21 21:33N 34°38' E 135°11'7 7.3
2016-Jun-21 20:33N 34°36' E 135°02'  
2016-Jun-19 07:14N 34°37' E 135°01'710.6
2016-Jun-19 06:33N 34°35' E 135°09'1312.6
2016-Jun-19 05:33N 34°33' E 135°25'1 0.2
2016-Jun-19 00:15N 34°33' E 135°26'2 3.3
2016-Jun-18 23:31N 34°34' E 135°23'0 0.0
2016-Jun-18 21:17N 34°34' E 135°23'0 0.0
2016-Jun-18 20:11N 34°34' E 135°23'0 0.0
2016-Jun-18 18:23N 34°34' E 135°23'2 2.9
2016-Jun-18 17:33N 34°34' E 135°21'1312.9
2016-Jun-18 16:34N 34°35' E 135°05'  

Dump ship's entire track history